Time;durP1;ratioP1;P1;durP2;ratioP2;P2;SDS_P1;SDS_P2;PMS_P1;PMS_P2;Temp;Humidity;BMP_temperature;BMP_pressure;BME280_temperature;BME280_humidity;BME280_pressure;Samples;Min_cycle;Max_cycle;Signal;HPM_P1;HPM_P2
2022/08/29 00:00:23;;;;;;;0.45;0.40;;;;;;;25.10;43.04;100551.78;5106555;28;20141;-73
2022/08/29 00:02:51;;;;;;;0.40;0.40;;;;;;;25.12;42.90;100551.50;5106816;28;20027;-73
2022/08/29 00:05:18;;;;;;;0.43;0.43;;;;;;;25.06;42.90;100547.16;5105614;28;20076;-73
2022/08/29 00:07:44;;;;;;;0.50;0.50;;;;;;;25.11;42.91;100544.41;5087691;28;20092;-73
2022/08/29 00:10:09;;;;;;;0.40;0.40;;;;;;;25.10;42.83;100548.25;5105208;28;20036;-73
2022/08/29 00:12:35;;;;;;;0.30;0.30;;;;;;;25.12;42.96;100548.78;5106065;28;20028;-73
2022/08/29 00:15:00;;;;;;;0.50;0.50;;;;;;;25.10;42.93;100560.00;5106275;28;20024;-73
2022/08/29 00:17:26;;;;;;;0.40;0.40;;;;;;;25.11;42.86;100566.28;5105412;28;20102;-73
2022/08/29 00:19:51;;;;;;;0.40;0.40;;;;;;;25.12;42.65;100562.44;5105110;28;20039;-73
2022/08/29 00:22:17;;;;;;;0.40;0.40;;;;;;;25.10;42.65;100562.72;5104663;28;20028;-73
2022/08/29 00:24:43;;;;;;;0.40;0.40;;;;;;;25.10;42.74;100575.59;5103427;28;20024;-73
2022/08/29 00:27:08;;;;;;;0.30;0.30;;;;;;;25.09;42.66;100579.41;5102596;28;20021;-73
2022/08/29 00:29:34;;;;;;;0.40;0.40;;;;;;;25.09;42.88;100587.63;5105479;28;20035;-73
2022/08/29 00:31:59;;;;;;;0.28;0.28;;;;;;;25.08;42.73;100575.06;5104765;28;20020;-73
2022/08/29 00:34:25;;;;;;;0.55;0.52;;;;;;;25.12;42.56;100565.19;5108741;28;20051;-73
2022/08/29 00:36:51;;;;;;;0.60;0.60;;;;;;;25.15;42.40;100556.44;5112300;28;20039;-72
2022/08/29 00:39:16;;;;;;;0.50;0.50;;;;;;;25.14;42.40;100549.31;5105645;28;20027;-73
2022/08/29 00:41:42;;;;;;;0.50;0.50;;;;;;;25.12;42.61;100537.84;5105197;28;20046;-73
2022/08/29 00:44:07;;;;;;;0.47;0.47;;;;;;;25.12;42.31;100538.66;5105526;28;20352;-73
2022/08/29 00:46:39;;;;;;;0.30;0.30;;;;;;;25.14;42.34;100532.09;5088032;28;20117;-73
2022/08/29 00:49:29;;;;;;;0.40;0.40;;;;;;;25.14;42.36;100524.69;5087830;28;20111;-73
2022/08/29 00:51:56;;;;;;;0.40;0.40;;;;;;;25.04;42.29;100506.44;5091503;28;20100;-73
2022/08/29 00:54:22;;;;;;;0.40;0.40;;;;;;;25.11;42.00;100514.31;5087355;28;20024;-73
2022/08/29 00:56:47;;;;;;;0.40;0.40;;;;;;;25.13;42.11;100514.88;5105872;28;20032;-73
2022/08/29 00:59:19;;;;;;;0.60;0.60;;;;;;;25.14;42.43;100508.28;5087531;28;20023;-73
2022/08/29 01:01:44;;;;;;;0.40;0.40;;;;;;;25.12;42.20;100519.50;5070048;28;20032;-73
2022/08/29 01:04:10;;;;;;;0.40;0.40;;;;;;;25.12;42.24;100541.38;5105447;28;20081;-73
2022/08/29 01:06:36;;;;;;;0.40;0.40;;;;;;;25.14;42.29;100565.72;5104910;28;20051;-73
2022/08/29 01:09:02;;;;;;;0.50;0.50;;;;;;;25.10;42.33;100595.53;5105032;28;20031;-73
2022/08/29 01:14:12;;;;;;;0.35;0.35;;;;;;;25.09;42.01;100602.13;5089737;28;20378;-73
2022/08/29 01:16:38;;;;;;;0.40;0.40;;;;;;;25.09;41.85;100602.13;5087412;28;20111;-73
2022/08/29 01:19:17;;;;;;;0.50;0.50;;;;;;;25.11;42.00;100601.81;5086486;28;20064;-73
2022/08/29 01:21:52;;;;;;;0.40;0.40;;;;;;;25.13;41.73;100588.72;5088779;28;20069;-73
2022/08/29 01:24:28;;;;;;;0.30;0.30;;;;;;;25.12;41.94;100590.59;5086460;28;20028;-73
2022/08/29 01:26:53;;;;;;;0.40;0.40;;;;;;;25.14;41.93;100592.25;5086845;28;20031;-73
2022/08/29 01:29:19;;;;;;;0.50;0.50;;;;;;;25.13;41.65;100591.44;5105145;28;20028;-73
2022/08/29 01:31:47;;;;;;;0.40;0.40;;;;;;;25.12;41.86;100579.66;5104708;28;20081;-73
2022/08/29 01:34:13;;;;;;;0.30;0.30;;;;;;;25.12;41.67;100563.25;5104911;28;20079;-73
2022/08/29 01:37:01;;;;;;;0.40;0.40;;;;;;;25.12;41.82;100540.56;5104046;28;20031;-73
2022/08/29 01:39:30;;;;;;;0.40;0.40;;;;;;;25.11;41.76;100530.72;5103833;28;20570;-73
2022/08/29 01:41:58;;;;;;;0.50;0.50;;;;;;;25.12;41.50;100540.56;5104017;28;20023;-73
2022/08/29 01:44:25;;;;;;;0.63;0.52;;;;;;;25.14;41.60;100553.97;5101124;28;20077;-73
2022/08/29 01:46:53;;;;;;;0.50;0.50;;;;;;;25.10;41.53;100565.47;5100638;28;20028;-73
2022/08/29 01:49:20;;;;;;;0.52;0.52;;;;;;;25.11;41.52;100550.69;5100755;28;20104;-73
2022/08/29 01:51:46;;;;;;;0.50;0.50;;;;;;;25.12;41.43;100554.25;5100155;28;20039;-73
2022/08/29 01:54:11;;;;;;;0.45;0.45;;;;;;;25.09;41.55;100544.69;5101509;28;20020;-73
2022/08/29 01:56:39;;;;;;;0.40;0.40;;;;;;;25.11;41.83;100549.88;5102180;28;20016;-73
2022/08/29 01:59:06;;;;;;;0.40;0.40;;;;;;;25.11;41.37;100566.28;5103235;28;20047;-73
2022/08/29 02:01:34;;;;;;;0.40;0.40;;;;;;;25.10;41.56;100564.66;5103676;28;20073;-72
2022/08/29 02:03:59;;;;;;;0.50;0.50;;;;;;;25.12;41.40;100554.25;5089951;28;20024;-73
2022/08/29 02:06:25;;;;;;;0.40;0.40;;;;;;;25.12;41.38;100554.25;5130852;28;20027;-73
2022/08/29 02:08:51;;;;;;;0.50;0.50;;;;;;;25.09;41.20;100557.53;5131476;28;20023;-73
2022/08/29 02:11:16;;;;;;;0.52;0.52;;;;;;;25.08;41.22;100566.84;5112513;28;20038;-73
2022/08/29 02:13:47;;;;;;;0.47;0.47;;;;;;;25.06;41.62;100569.88;5130587;28;20023;-73
2022/08/29 02:16:13;;;;;;;0.47;0.47;;;;;;;25.08;41.60;100566.84;5130441;28;20035;-73
2022/08/29 02:18:41;;;;;;;0.50;0.30;;;;;;;25.06;41.44;100560.81;5112771;28;20070;-73
2022/08/29 02:21:06;;;;;;;0.30;0.30;;;;;;;25.08;41.37;100561.38;5131949;28;20069;-73
2022/08/29 02:23:33;;;;;;;0.40;0.40;;;;;;;25.06;41.44;100542.53;5130993;28;20016;-73
2022/08/29 02:25:58;;;;;;;0.50;0.50;;;;;;;25.06;41.43;100574.50;5130268;28;20030;-73
2022/08/29 02:28:24;;;;;;;0.52;0.52;;;;;;;25.06;41.23;100599.94;5130542;28;20024;-73
2022/08/29 02:30:54;;;;;;;0.40;0.40;;;;;;;25.08;41.21;100605.13;5130887;28;20111;-73
2022/08/29 02:33:20;;;;;;;0.50;0.50;;;;;;;25.07;41.07;100600.75;5130542;28;20077;-73
2022/08/29 02:35:47;;;;;;;0.82;0.60;;;;;;;25.08;41.38;100596.94;5129859;28;20048;-73
2022/08/29 02:38:12;;;;;;;0.40;0.40;;;;;;;25.07;41.43;100581.59;5112761;28;20026;-73
2022/08/29 02:40:38;;;;;;;0.40;0.40;;;;;;;25.05;41.42;100575.59;5130612;28;20019;-73
2022/08/29 02:43:04;;;;;;;0.50;0.50;;;;;;;25.06;41.28;100569.03;5130849;28;20046;-73
2022/08/29 02:45:29;;;;;;;0.40;0.40;;;;;;;25.03;41.17;100569.59;5130950;28;20027;-73
2022/08/29 02:47:55;;;;;;;0.52;0.47;;;;;;;25.08;41.41;100583.25;5130296;28;20024;-73
2022/08/29 02:50:20;;;;;;;0.40;0.40;;;;;;;25.10;41.46;100594.72;5129967;28;20480;-73
2022/08/29 02:52:46;;;;;;;0.50;0.50;;;;;;;25.08;41.43;100596.94;5130179;28;20020;-73
2022/08/29 02:55:14;;;;;;;0.50;0.50;;;;;;;25.03;41.58;100596.94;5130872;28;20107;-73
2022/08/29 02:57:42;;;;;;;0.45;0.45;;;;;;;25.07;41.36;100611.69;5130176;28;20076;-73
2022/08/29 03:00:11;;;;;;;0.43;0.43;;;;;;;25.06;41.46;100618.25;5129931;28;20028;-73
2022/08/29 03:02:37;;;;;;;0.40;0.40;;;;;;;25.09;41.26;100634.94;5124991;28;20035;-73
2022/08/29 03:05:04;;;;;;;0.70;0.50;;;;;;;25.05;41.34;100635.75;5109444;28;20016;-73
2022/08/29 03:07:29;;;;;;;0.60;0.50;;;;;;;25.07;41.65;100664.44;5109197;28;20031;-73
2022/08/29 03:09:55;;;;;;;0.50;0.50;;;;;;;25.04;41.54;100681.44;5108085;28;20032;-73
2022/08/29 03:12:20;;;;;;;0.45;0.45;;;;;;;25.08;41.64;100687.16;5109507;28;20435;-73
2022/08/29 03:14:46;;;;;;;0.40;0.40;;;;;;;25.09;41.37;100683.31;5107512;28;20024;-73
2022/08/29 03:17:11;;;;;;;0.50;0.50;;;;;;;25.09;41.33;100667.75;5104981;28;20039;-73
2022/08/29 03:19:38;;;;;;;0.52;0.52;;;;;;;25.10;41.54;100674.03;5104243;28;20401;-73
2022/08/29 03:22:03;;;;;;;0.40;0.40;;;;;;;25.06;41.47;100683.88;5104550;28;20020;-73
2022/08/29 03:24:29;;;;;;;0.50;0.50;;;;;;;25.06;41.90;100672.94;5105831;28;20548;-73
2022/08/29 03:26:54;;;;;;;0.52;0.52;;;;;;;25.06;41.65;100642.84;5105352;28;20028;-73
2022/08/29 03:29:20;;;;;;;0.50;0.50;;;;;;;25.04;41.52;100631.38;5105382;28;20055;-73
2022/08/29 03:31:46;;;;;;;0.55;0.52;;;;;;;25.04;41.41;100625.91;5104631;28;20017;-73
2022/08/29 03:34:13;;;;;;;0.80;0.60;;;;;;;25.06;41.45;100634.66;5105126;28;20047;-73
2022/08/29 03:36:38;;;;;;;0.55;0.55;;;;;;;25.09;41.36;100628.63;5087258;28;20035;-73
2022/08/29 03:39:04;;;;;;;0.52;0.52;;;;;;;25.03;41.45;100619.63;5104725;28;20080;-73
2022/08/29 03:41:45;;;;;;;0.45;0.45;;;;;;;25.08;41.57;100619.63;5102873;28;20024;-73
2022/08/29 03:44:11;;;;;;;0.40;0.40;;;;;;;25.07;41.35;100617.97;5073891;28;20243;-73
2022/08/29 03:46:38;;;;;;;0.50;0.50;;;;;;;25.07;41.41;100615.22;5086802;28;20076;-73
2022/08/29 03:49:04;;;;;;;0.47;0.47;;;;;;;25.07;41.58;100631.63;5103857;28;20035;-73
2022/08/29 03:51:30;;;;;;;0.60;0.60;;;;;;;25.04;41.33;100637.69;5103956;28;20028;-73
2022/08/29 03:53:56;;;;;;;0.40;0.40;;;;;;;25.02;41.68;100645.31;5103497;28;20028;-73
2022/08/29 03:56:22;;;;;;;0.50;0.50;;;;;;;24.92;41.86;100650.81;5104103;28;20031;-73
2022/08/29 03:58:49;;;;;;;0.60;0.60;;;;;;;25.02;41.59;100672.66;5103295;28;20024;-73
2022/08/29 04:01:16;;;;;;;0.95;0.52;;;;;;;24.98;41.89;100676.25;5103719;28;20053;-72
2022/08/29 04:03:41;;;;;;;0.40;0.40;;;;;;;25.01;41.80;100676.50;5116959;28;20041;-73
2022/08/29 04:06:07;;;;;;;0.50;0.50;;;;;;;25.01;41.73;100659.28;5121245;28;20518;-72
2022/08/29 04:08:33;;;;;;;0.40;0.40;;;;;;;24.89;42.15;100635.81;5120048;28;20029;-72
2022/08/29 04:10:58;;;;;;;0.45;0.45;;;;;;;24.85;42.04;100612.88;5101450;28;20035;-72
2022/08/29 04:13:24;;;;;;;0.50;0.50;;;;;;;24.89;41.95;100572.13;5120569;28;20015;-72
2022/08/29 04:15:50;;;;;;;0.40;0.40;;;;;;;24.94;41.86;100536.56;5120151;28;20539;-72
2022/08/29 04:18:16;;;;;;;0.30;0.30;;;;;;;24.95;41.79;100551.84;5120285;28;20057;-72
2022/08/29 04:20:43;;;;;;;0.60;0.50;;;;;;;24.85;41.94;100566.41;5120443;28;20027;-72
2022/08/29 04:23:12;;;;;;;0.60;0.60;;;;;;;24.88;42.08;100578.69;5120835;28;20035;-72
2022/08/29 04:25:38;;;;;;;0.75;0.65;;;;;;;24.88;41.72;100587.69;5121046;28;20039;-72
2022/08/29 04:28:05;;;;;;;0.63;0.60;;;;;;;24.88;41.99;100578.69;5103191;28;20030;-72
2022/08/29 04:30:30;;;;;;;1.95;0.80;;;;;;;24.88;41.95;100571.28;5121344;28;20024;-72
2022/08/29 04:32:56;;;;;;;1.63;0.93;;;;;;;24.83;42.09;100571.31;5121721;28;20408;-72
2022/08/29 04:35:21;;;;;;;0.82;0.65;;;;;;;24.89;42.02;100569.41;5121659;28;20051;-72
2022/08/29 04:37:47;;;;;;;0.95;0.60;;;;;;;24.89;41.88;100567.47;5120882;28;20024;-72
2022/08/29 04:40:14;;;;;;;0.98;0.65;;;;;;;24.90;42.14;100576.47;5121153;28;20107;-72
2022/08/29 04:42:40;;;;;;;0.60;0.60;;;;;;;24.87;41.79;100579.75;5121429;28;20099;-72
2022/08/29 04:45:06;;;;;;;0.77;0.77;;;;;;;24.91;41.98;100592.59;5121066;28;20492;-72
2022/08/29 04:47:34;;;;;;;0.63;0.50;;;;;;;24.93;41.62;100584.13;5118741;28;20027;-78
2022/08/29 04:49:59;;;;;;;0.60;0.60;;;;;;;24.98;41.40;100597.78;5099652;28;20484;-78
2022/08/29 04:52:25;;;;;;;0.50;0.50;;;;;;;24.99;41.64;100606.78;5118840;28;20020;-78
2022/08/29 04:54:50;;;;;;;0.60;0.60;;;;;;;24.93;41.62;100619.66;5122224;28;20377;-78
2022/08/29 04:57:16;;;;;;;0.98;0.70;;;;;;;25.00;41.33;100630.31;5123779;28;20109;-78
2022/08/29 04:59:41;;;;;;;0.57;0.50;;;;;;;25.07;41.30;100633.56;5126983;28;20429;-78
2022/08/29 05:02:07;;;;;;;0.50;0.50;;;;;;;24.97;41.35;100620.72;5129251;28;20012;-78
2022/08/29 05:04:32;;;;;;;0.45;0.32;;;;;;;25.00;41.25;100602.97;5115368;28;20089;-78
2022/08/29 05:06:58;;;;;;;0.40;0.40;;;;;;;24.97;41.58;100598.06;5113746;28;20042;-77
2022/08/29 05:09:24;;;;;;;0.93;0.47;;;;;;;24.96;41.65;100593.66;5109559;28;20050;-79
2022/08/29 05:11:57;;;;;;;0.50;0.50;;;;;;;24.93;41.18;100587.66;5107209;28;20043;-78
2022/08/29 05:14:25;;;;;;;0.75;0.55;;;;;;;24.87;41.57;100591.53;5088234;28;20032;-79
2022/08/29 05:16:51;;;;;;;0.50;0.50;;;;;;;24.97;41.57;100587.94;5094974;28;20036;-77
2022/08/29 05:19:16;;;;;;;0.63;0.40;;;;;;;24.92;41.68;100580.59;5093992;28;20378;-77
2022/08/29 05:21:42;;;;;;;0.63;0.50;;;;;;;25.00;41.33;100584.63;5093952;28;20054;-77
2022/08/29 05:24:09;;;;;;;1.13;0.50;;;;;;;24.95;41.27;100584.66;5094116;28;20028;-78
2022/08/29 05:26:37;;;;;;;1.05;0.60;;;;;;;24.98;41.24;100586.03;5094159;28;20562;-79
2022/08/29 05:29:05;;;;;;;0.90;0.60;;;;;;;24.92;41.51;100591.53;5094583;28;20062;-77
2022/08/29 05:31:30;;;;;;;1.30;0.50;;;;;;;24.90;41.76;100584.69;5094054;28;20039;-77
2022/08/29 05:33:56;;;;;;;0.60;0.60;;;;;;;24.95;41.69;100581.94;5094042;28;20374;-77
2022/08/29 05:36:22;;;;;;;0.50;0.50;;;;;;;24.99;41.67;100590.38;5094267;28;20108;-77
2022/08/29 05:38:47;;;;;;;0.47;0.45;;;;;;;24.90;41.73;100587.41;5092928;28;20028;-77
2022/08/29 05:41:13;;;;;;;0.63;0.50;;;;;;;25.00;41.24;100597.50;5093766;28;20039;-77
2022/08/29 05:43:38;;;;;;;0.40;0.40;;;;;;;25.01;41.18;100593.66;5094036;28;20024;-77
2022/08/29 05:46:05;;;;;;;0.60;0.60;;;;;;;24.99;41.33;100593.13;5093872;28;20465;-77
2022/08/29 05:48:31;;;;;;;1.20;0.60;;;;;;;24.97;41.23;100587.13;5094101;28;20058;-77
2022/08/29 05:50:57;;;;;;;2.92;0.90;;;;;;;24.89;41.21;100585.78;5094291;28;20028;-77
2022/08/29 05:53:22;;;;;;;7.38;2.38;;;;;;;25.03;40.71;100586.00;5095045;28;20132;-76
2022/08/29 05:55:48;;;;;;;8.25;3.25;;;;;;;25.08;40.91;100594.19;5094872;28;20103;-78
2022/08/29 05:58:13;;;;;;;8.95;3.30;;;;;;;25.12;40.46;100600.72;5095635;28;20028;-78
2022/08/29 06:00:43;;;;;;;12.02;4.10;;;;;;;24.98;40.71;100591.50;5093653;28;20486;-78
2022/08/29 06:03:09;;;;;;;9.07;3.53;;;;;;;25.03;40.73;100596.94;5100475;28;20016;-77
2022/08/29 06:05:35;;;;;;;5.82;2.97;;;;;;;25.04;41.03;100599.41;5078905;28;20032;-78
2022/08/29 06:08:00;;;;;;;7.80;3.20;;;;;;;24.98;41.34;100605.16;5114457;28;20048;-75
2022/08/29 06:10:26;;;;;;;10.15;4.10;;;;;;;25.02;40.98;100608.97;5115106;28;20035;-74
2022/08/29 06:12:52;;;;;;;7.82;3.70;;;;;;;25.04;41.04;100609.50;5115483;28;20112;-74
2022/08/29 06:15:17;;;;;;;8.20;3.72;;;;;;;25.06;41.13;100601.84;5114408;28;20034;-74
2022/08/29 06:17:43;;;;;;;5.82;3.10;;;;;;;25.06;41.01;100619.09;5113949;28;20035;-74
2022/08/29 06:20:09;;;;;;;7.38;2.95;;;;;;;25.08;40.46;100616.06;5078586;28;20036;-74
2022/08/29 06:22:35;;;;;;;5.18;2.35;;;;;;;25.07;40.63;100625.34;5113830;28;20370;-74
2022/08/29 06:25:01;;;;;;;5.07;2.33;;;;;;;25.03;40.56;100619.63;5113755;28;20031;-74
2022/08/29 06:27:26;;;;;;;4.78;1.98;;;;;;;24.95;40.98;100614.72;5113929;28;20111;-74
2022/08/29 06:29:52;;;;;;;4.10;1.80;;;;;;;25.02;40.83;100626.19;5114746;28;20035;-73
2022/08/29 06:32:18;;;;;;;3.88;1.48;;;;;;;25.08;39.99;100629.75;5114698;28;20319;-74
2022/08/29 06:34:43;;;;;;;2.58;1.27;;;;;;;24.99;40.16;100632.22;5113929;28;20504;-74
2022/08/29 06:37:08;;;;;;;1.40;1.13;;;;;;;25.02;40.44;100639.03;5114297;28;20035;-73
2022/08/29 06:39:34;;;;;;;1.92;1.10;;;;;;;25.09;40.18;100647.78;5114508;28;20105;-73
2022/08/29 06:41:59;;;;;;;2.38;1.08;;;;;;;25.17;39.85;100646.41;5113499;28;20032;-74
2022/08/29 06:44:25;;;;;;;1.23;0.75;;;;;;;25.20;39.76;100646.66;5113686;28;20046;-74
2022/08/29 06:46:50;;;;;;;1.20;0.73;;;;;;;25.22;39.89;100638.97;5113879;28;20404;-74
2022/08/29 06:49:26;;;;;;;1.52;0.80;;;;;;;25.22;39.82;100644.44;5115431;28;20063;-76
2022/08/29 06:51:52;;;;;;;1.80;0.50;;;;;;;25.12;39.77;100655.41;5100420;28;20035;-74
2022/08/29 06:54:21;;;;;;;2.30;0.60;;;;;;;25.24;39.81;100657.84;5117697;28;20076;-73
2022/08/29 06:56:47;;;;;;;1.42;0.57;;;;;;;25.21;39.73;100664.69;5117949;28;20024;-76
2022/08/29 06:59:13;;;;;;;1.25;0.70;;;;;;;25.24;40.04;100650.44;5117215;28;20035;-74
2022/08/29 07:01:40;;;;;;;2.50;0.85;;;;;;;25.09;40.26;100661.44;5116843;28;20028;-73
2022/08/29 07:04:06;;;;;;;1.17;0.57;;;;;;;25.10;40.02;100660.34;5103433;28;20374;-72
2022/08/29 07:06:31;;;;;;;1.10;0.40;;;;;;;25.01;40.27;100660.13;5096987;28;20020;-71
2022/08/29 07:08:57;;;;;;;0.65;0.45;;;;;;;25.13;39.86;100657.06;5096414;28;20102;-70
2022/08/29 07:11:24;;;;;;;2.25;0.50;;;;;;;25.18;40.22;100654.31;5096309;28;20112;-71
2022/08/29 07:13:49;;;;;;;1.50;0.60;;;;;;;25.19;39.79;100658.66;5096402;28;20119;-71
2022/08/29 07:16:15;;;;;;;1.35;0.30;;;;;;;25.20;40.09;100657.59;5096563;28;20505;-71
2022/08/29 07:18:42;;;;;;;1.95;0.50;;;;;;;25.18;39.82;100654.31;5097049;28;20462;-72
2022/08/29 07:21:08;;;;;;;3.10;1.00;;;;;;;25.23;39.98;100651.56;5078385;28;20327;-72
2022/08/29 07:23:34;;;;;;;4.75;1.27;;;;;;;25.25;39.73;100645.78;5095908;28;20016;-71
2022/08/29 07:26:13;;;;;;;7.53;2.75;;;;;;;25.20;39.82;100652.13;5096537;28;20340;-71
2022/08/29 07:28:39;;;;;;;8.20;3.10;;;;;;;25.29;39.66;100653.19;5096354;28;20474;-74
2022/08/29 07:31:05;;;;;;;9.68;2.97;;;;;;;25.28;39.68;100665.25;5096780;28;20043;-73
2022/08/29 07:33:30;;;;;;;7.65;2.70;;;;;;;25.23;40.05;100667.97;5078735;28;20085;-72
2022/08/29 07:35:57;;;;;;;7.80;2.63;;;;;;;25.25;39.92;100665.81;5078210;28;20051;-71
2022/08/29 07:38:22;;;;;;;4.55;1.75;;;;;;;25.23;39.75;100672.59;5098433;28;20107;-71
2022/08/29 07:40:48;;;;;;;6.13;2.15;;;;;;;25.23;39.88;100670.72;5080210;28;20103;-71
2022/08/29 07:43:14;;;;;;;3.47;1.45;;;;;;;25.21;39.61;100677.53;5062670;28;20028;-70
2022/08/29 07:45:40;;;;;;;4.45;1.70;;;;;;;25.21;39.96;100677.53;5098207;28;20077;-70
2022/08/29 07:48:05;;;;;;;4.10;1.33;;;;;;;25.24;39.51;100690.66;5098663;28;20024;-72
2022/08/29 07:50:31;;;;;;;2.50;1.05;;;;;;;25.17;39.90;100696.44;5105064;28;20058;-71
2022/08/29 07:52:57;;;;;;;2.67;1.20;;;;;;;25.23;39.72;100695.31;5079065;28;20108;-71
2022/08/29 07:55:22;;;;;;;1.90;0.93;;;;;;;25.20;39.53;100695.03;5096600;28;20028;-72
2022/08/29 07:57:51;;;;;;;2.30;0.68;;;;;;;25.15;39.57;100686.84;5095934;28;20032;-71
2022/08/29 08:00:17;;;;;;;2.40;0.95;;;;;;;25.20;39.29;100693.13;5077568;28;20028;-72
2022/08/29 08:02:43;;;;;;;1.80;0.80;;;;;;;25.20;39.49;100684.94;5095908;28;20097;-72
2022/08/29 08:05:08;;;;;;;1.05;0.68;;;;;;;25.17;39.77;100685.50;5096605;28;20479;-72
2022/08/29 08:07:34;;;;;;;0.80;0.57;;;;;;;25.23;39.56;100689.03;5096189;28;20030;-72
2022/08/29 08:10:00;;;;;;;1.02;0.50;;;;;;;25.19;39.41;100686.03;5096717;28;20533;-71
2022/08/29 08:12:26;;;;;;;1.45;0.60;;;;;;;25.16;39.29;100694.78;5098628;28;20052;-71
2022/08/29 08:14:51;;;;;;;2.13;0.40;;;;;;;25.20;38.91;100690.41;5096512;28;20084;-71
2022/08/29 08:17:17;;;;;;;0.73;0.40;;;;;;;25.27;38.90;100696.44;5095596;28;20423;-70
2022/08/29 08:19:43;;;;;;;1.23;0.60;;;;;;;25.19;39.29;100699.69;5095551;28;20166;-70
2022/08/29 08:22:09;;;;;;;1.08;0.50;;;;;;;25.17;39.27;100701.09;5095325;28;20051;-73
2022/08/29 08:24:34;;;;;;;0.55;0.30;;;;;;;25.22;38.90;100699.16;5095337;28;20016;-72
2022/08/29 08:27:00;;;;;;;1.13;0.40;;;;;;;25.20;39.34;100693.13;5095598;28;20099;-72
2022/08/29 08:29:25;;;;;;;0.32;0.32;;;;;;;25.22;39.12;100690.13;5095769;28;20093;-72
2022/08/29 08:31:51;;;;;;;0.30;0.30;;;;;;;25.25;38.61;100679.47;5077556;28;20085;-71
2022/08/29 08:34:17;;;;;;;0.30;0.30;;;;;;;25.25;38.77;100690.44;5095832;28;20041;-71
2022/08/29 08:36:43;;;;;;;0.20;0.20;;;;;;;25.26;38.83;100696.69;5096096;28;20047;-72
2022/08/29 08:39:09;;;;;;;0.45;0.30;;;;;;;25.26;38.67;100700.25;5098869;28;20027;-71
2022/08/29 08:41:55;;;;;;;0.50;0.30;;;;;;;25.24;38.58;100699.69;5089034;28;20153;-71
2022/08/29 08:44:21;;;;;;;0.88;0.38;;;;;;;25.28;38.47;100698.06;5104389;28;20024;-71
2022/08/29 08:46:48;;;;;;;0.30;0.30;;;;;;;25.29;38.80;100698.88;5101479;28;20068;-71
2022/08/29 08:49:29;;;;;;;0.40;0.20;;;;;;;25.24;38.37;100696.94;5070412;28;20032;-72
2022/08/29 08:52:01;;;;;;;15.38;6.75;;;;;;;25.23;38.49;100692.59;5089819;28;20032;-71
2022/08/29 08:54:30;;;;;;;4.07;2.00;;;;;;;25.29;38.48;100698.88;5087009;28;20035;-72
2022/08/29 08:57:06;;;;;;;3.63;1.45;;;;;;;25.26;38.37;100702.97;5064292;28;20123;-72
2022/08/29 08:59:38;;;;;;;1.42;1.13;;;;;;;25.22;38.26;100710.09;5096062;28;20106;-72
2022/08/29 09:02:44;;;;;;;2.10;1.15;;;;;;;25.23;38.43;100717.22;5082114;28;20458;-72
2022/08/29 09:05:27;;;;;;;2.13;0.82;;;;;;;25.30;38.18;100717.75;5061468;28;20470;-71
2022/08/29 09:08:31;;;;;;;2.20;1.10;;;;;;;25.28;38.48;100722.69;5075133;28;20078;-72
2022/08/29 09:11:08;;;;;;;1.98;0.65;;;;;;;25.24;38.37;100726.22;5074404;28;20063;-72
2022/08/29 09:14:02;;;;;;;1.02;0.57;;;;;;;25.25;38.45;100731.44;5089866;28;20066;-72
2022/08/29 09:16:36;;;;;;;0.80;0.40;;;;;;;25.33;38.26;100738.25;5089207;28;20044;-70
2022/08/29 09:19:04;;;;;;;2.03;0.60;;;;;;;25.35;37.96;100747.00;5089227;28;20028;-71
2022/08/29 09:21:33;;;;;;;1.25;0.40;;;;;;;25.30;38.21;100750.59;5073803;28;20028;-72
2022/08/29 09:23:58;;;;;;;1.63;0.30;;;;;;;25.20;38.38;100734.16;5089549;28;20028;-71
2022/08/29 09:26:26;;;;;;;1.08;0.40;;;;;;;25.26;38.58;100737.72;5089158;28;20463;-70
2022/08/29 09:28:51;;;;;;;0.30;0.30;;;;;;;25.33;38.31;100745.66;5073931;28;20047;-71
2022/08/29 09:31:20;;;;;;;1.33;0.40;;;;;;;25.38;38.17;100745.63;5074209;28;20465;-71
2022/08/29 09:33:54;;;;;;;0.75;0.40;;;;;;;25.35;37.99;100747.00;5073918;28;20039;-72
2022/08/29 09:36:50;;;;;;;0.40;0.30;;;;;;;25.34;37.85;100737.16;5075196;28;20039;-71
2022/08/29 09:39:27;;;;;;;0.85;0.38;;;;;;;25.30;38.42;100742.38;5075054;28;20112;-71
2022/08/29 09:41:56;;;;;;;0.40;0.40;;;;;;;25.33;38.23;100742.91;5074599;28;20016;-71
2022/08/29 09:44:28;;;;;;;0.50;0.30;;;;;;;25.31;38.28;100751.41;5056273;28;20025;-71
2022/08/29 09:47:07;;;;;;;0.35;0.30;;;;;;;25.32;38.29;100752.19;5093205;28;20036;-71
2022/08/29 09:49:33;;;;;;;0.20;0.20;;;;;;;25.33;38.33;100753.84;5096498;28;20040;-72
2022/08/29 09:52:14;;;;;;;0.22;0.22;;;;;;;25.33;38.12;100743.72;5083040;28;20031;-72
2022/08/29 09:54:40;;;;;;;0.57;0.28;;;;;;;25.35;38.25;100752.47;5084492;28;20043;-74
2022/08/29 09:57:18;;;;;;;0.43;0.22;;;;;;;25.35;38.07;100751.66;5097249;28;20076;-70
2022/08/29 09:59:47;;;;;;;0.40;0.30;;;;;;;25.37;38.02;100754.94;5082002;28;20078;-71
2022/08/29 10:02:18;;;;;;;0.20;0.20;;;;;;;25.30;37.98;100761.53;5074040;28;20100;-70
2022/08/29 10:04:46;;;;;;;0.22;0.22;;;;;;;25.33;37.90;100753.84;5105582;28;20098;-70
2022/08/29 10:07:17;;;;;;;0.20;0.20;;;;;;;25.26;38.08;100738.53;5096062;28;20023;-70
2022/08/29 10:10:02;;;;;;;1.48;0.20;;;;;;;25.34;37.79;100739.91;5095305;28;20035;-70
2022/08/29 10:13:10;;;;;;;0.30;0.30;;;;;;;25.34;38.07;100739.09;5113167;28;20031;-70
2022/08/29 10:15:46;;;;;;;0.30;0.22;;;;;;;25.31;37.72;100745.91;5094632;28;20466;-70
2022/08/29 10:18:33;;;;;;;0.40;0.30;;;;;;;25.34;37.76;100744.56;5078681;28;20024;-70
2022/08/29 10:21:14;;;;;;;0.30;0.30;;;;;;;25.36;37.82;100740.44;5097508;28;20020;-69
2022/08/29 10:23:49;;;;;;;0.32;0.20;;;;;;;25.34;37.93;100755.50;5113603;28;20032;-70
2022/08/29 10:26:29;;;;;;;1.40;0.20;;;;;;;25.35;37.73;100752.47;5117499;28;20515;-70
2022/08/29 10:29:03;;;;;;;0.30;0.30;;;;;;;25.35;37.83;100755.19;5100219;28;20473;-70
2022/08/29 10:31:36;;;;;;;0.28;0.22;;;;;;;25.35;37.93;100746.19;5117257;28;20072;-69
2022/08/29 10:34:17;;;;;;;1.75;0.20;;;;;;;25.34;37.96;100741.84;5098946;28;20536;-70
2022/08/29 10:36:46;;;;;;;0.10;0.10;;;;;;;25.34;37.79;100744.56;5117429;28;20081;-70
2022/08/29 10:39:16;;;;;;;0.20;0.20;;;;;;;25.33;37.85;100743.72;5098974;28;20194;-70
2022/08/29 10:42:04;;;;;;;0.13;0.13;;;;;;;25.35;37.67;100740.72;5117259;28;20098;-70
2022/08/29 10:44:43;;;;;;;0.47;0.20;;;;;;;25.36;37.74;100739.63;5099057;28;20035;-70
2022/08/29 10:47:17;;;;;;;0.20;0.20;;;;;;;25.30;37.92;100738.81;5099957;28;20031;-70
2022/08/29 10:49:43;;;;;;;0.20;0.20;;;;;;;25.36;37.99;100732.22;5098598;28;20035;-70
2022/08/29 10:52:25;;;;;;;0.55;0.20;;;;;;;25.36;37.72;100725.94;5116496;28;20019;-69
2022/08/29 10:55:05;;;;;;;0.25;0.20;;;;;;;25.36;37.84;100731.41;5116122;28;20085;-68
2022/08/29 10:57:55;;;;;;;1.95;0.40;;;;;;;25.30;37.78;100739.63;5117238;28;20019;-68
2022/08/29 11:00:23;;;;;;;0.40;0.40;;;;;;;25.31;37.95;100734.97;5116710;28;20032;-68
2022/08/29 11:03:03;;;;;;;1.30;0.50;;;;;;;25.28;38.14;100736.38;5116576;28;20030;-68
2022/08/29 11:05:32;;;;;;;0.65;0.40;;;;;;;25.30;37.93;100731.44;5074613;28;20435;-69
2022/08/29 11:08:02;;;;;;;1.00;0.57;;;;;;;25.34;37.64;100728.16;5092595;28;20024;-70
2022/08/29 11:10:32;;;;;;;0.80;0.40;;;;;;;25.33;37.74;100742.91;5075885;28;20481;-68
2022/08/29 11:13:01;;;;;;;0.68;0.35;;;;;;;25.28;37.99;100736.38;5075760;28;20036;-69
2022/08/29 11:15:32;;;;;;;0.85;0.40;;;;;;;25.29;37.74;100753.59;5091482;28;20106;-69
2022/08/29 11:18:07;;;;;;;0.70;0.30;;;;;;;25.30;37.80;100755.22;5091683;28;20040;-71
2022/08/29 11:20:37;;;;;;;0.40;0.30;;;;;;;25.26;37.95;100754.16;5076392;28;20024;-69
2022/08/29 11:23:17;;;;;;;2.05;0.30;;;;;;;25.32;37.43;100772.19;5057594;28;20036;-68
2022/08/29 11:25:42;;;;;;;0.43;0.40;;;;;;;25.31;37.53;100773.28;5090976;28;20017;-70
2022/08/29 11:28:12;;;;;;;0.60;0.40;;;;;;;25.30;37.30;100783.41;5075681;28;20039;-69
2022/08/29 11:30:40;;;;;;;0.38;0.30;;;;;;;25.26;37.47;100774.09;5074202;28;20471;-70
2022/08/29 11:33:09;;;;;;;1.55;0.25;;;;;;;25.16;37.48;100779.56;5075533;28;20036;-71